Webster, Illinois
Current Conditions -  °F | °C
As of 8:35 PM on Thursday 20 Nov 2014 (Local Time) from KMQB Reporting Station
Clear Clear  
Wind Chill:   Ceiling: Unl
Heat Index: 17°   Visibility: 10mi
Dew Point:   Wind: 5mph
Humidity: 70%   Direction: 330°NNW
Pressure: 30.31"   Gusts: NA
Location:  40.4155°N, 91.0269°W
Report Text: KMQB 210235Z AUTO 33004KT 10SM CLR M09/M13 A3031 RMK AO2 T10861131
Loading
Personal Weather Stations






























Interactive Weather Map New forecast layout! Learn more

10-Day Weather Forecast

Advertisements
Track Severe Weather on mobile